Acapulco — DJ5012 — position and weather

sailwx.info

Track history (hours):
 
Tides and Currents Weather Stations Pressure Air Temp Water Temp Dewpoint Dewpoint Depression Visibility Wind Speed Wind Dir Waves Ship Positions

Acapulco

Last reported at 2018-Jun-24 16:30 UTC. Time now 2018-Jun-24 16:41 UTC.
Position N 38°56' W 075°06'.

Length 17 m.

Type: Sailing vessel. MMSI: 211543370.

Date/timePositionNaut miles runAvg speedWind from/ knotsBaromVisibWave heightAir tempDewpointWater temp
2018-Jun-24 16:30N 38°56' W 075°06'1 2.7
2018-Jun-24 15:59N 38°55' W 075°07'1 2.4
2018-Jun-24 15:28N 38°54' W 075°07'6 2.6
2018-Jun-24 13:02N 38°47' W 075°09'0 0.0
2018-Jun-24 12:59N 38°47' W 075°09'0 0.0
2018-Jun-24 11:49N 38°47' W 075°09'1 0.4
2018-Jun-24 09:47N 38°47' W 075°10'0 0.0
2018-Jun-24 09:26N 38°47' W 075°10'0 0.0
2018-Jun-24 08:47N 38°47' W 075°10'0 0.0
2018-Jun-24 08:29N 38°47' W 075°10'0 0.0
2018-Jun-24 07:05N 38°47' W 075°10'0 0.1
2018-Jun-24 06:59N 38°47' W 075°10'28 0.7
2018-Jun-22 11:56N 38°20' W 075°06'0 0.0
2018-Jun-22 11:29N 38°20' W 075°06'0 0.0
2018-Jun-22 10:56N 38°20' W 075°06'0 0.0
2018-Jun-22 10:29N 38°20' W 075°06'0 0.0
2018-Jun-22 09:50N 38°20' W 075°06'0 0.0
2018-Jun-22 08:29N 38°20' W 075°06'  
2018-Jun-17 13:43N 36°53' W 076°20'2 5.9
2018-Jun-17 13:18N 36°51' W 076°18'1 0.0
2018-Jun-17 02:31N 36°51' W 076°18'0 0.0
2018-Jun-17 02:13N 36°51' W 076°18'0 0.0
2018-Jun-16 12:00N 36°51' W 076°18'0 0.1
2018-Jun-16 08:25N 36°51' W 076°18'0 0.0
2018-Jun-16 07:50N 36°51' W 076°18'0 0.0
2018-Jun-16 07:25N 36°51' W 076°18'0 0.0
2018-Jun-16 06:49N 36°51' W 076°18'0 0.0
2018-Jun-16 04:49N 36°51' W 076°18'0 0.0
2018-Jun-16 03:01N 36°51' W 076°18'0 0.0
2018-Jun-16 02:25N 36°51' W 076°18'0 0.0
2018-Jun-15 22:07N 36°51' W 076°18'0 0.0
2018-Jun-15 21:41N 36°51' W 076°18'0 0.0
2018-Jun-15 21:25N 36°51' W 076°18'0 0.0
2018-Jun-15 20:32N 36°51' W 076°18'0 0.0
2018-Jun-15 20:19N 36°51' W 076°18'0 0.0
2018-Jun-15 19:40N 36°51' W 076°18'0 0.0
2018-Jun-15 19:25N 36°51' W 076°18'0 0.0
2018-Jun-15 17:04N 36°51' W 076°18'0 0.0
2018-Jun-15 16:52N 36°51' W 076°18'1 1.4
2018-Jun-15 16:30N 36°50' W 076°18'0 0.6
2018-Jun-15 15:55N 36°50' W 076°18'0 0.0
2018-Jun-15 15:31N 36°50' W 076°18'1 1.3
2018-Jun-15 14:51N 36°51' W 076°18'0 0.0
2018-Jun-15 14:30N 36°51' W 076°18'0 0.0
2018-Jun-15 11:21N 36°51' W 076°18'0 0.0
2018-Jun-15 10:51N 36°51' W 076°18'0 0.0
2018-Jun-15 09:09N 36°51' W 076°18'0 0.0
2018-Jun-15 08:42N 36°51' W 076°18'0 0.0
2018-Jun-15 08:21N 36°51' W 076°18'0 0.0
2018-Jun-15 07:51N 36°51' W 076°18'0 0.0
2018-Jun-15 07:09N 36°51' W 076°18'0 0.0
2018-Jun-15 06:48N 36°51' W 076°18'0 0.0
2018-Jun-15 06:21N 36°51' W 076°18'0 0.0
2018-Jun-15 05:57N 36°51' W 076°18'0 0.0
2018-Jun-15 05:27N 36°51' W 076°18'0 0.0
2018-Jun-15 04:51N 36°51' W 076°18'0 0.0
2018-Jun-15 04:30N 36°51' W 076°18'0 0.0
2018-Jun-15 03:51N 36°51' W 076°18'0 0.0
2018-Jun-15 02:33N 36°51' W 076°18'0 0.0
2018-Jun-15 02:27N 36°51' W 076°18'0 0.0
2018-Jun-15 01:51N 36°51' W 076°18'0 0.0
2018-Jun-15 01:27N 36°51' W 076°18'0 0.0
2018-Jun-15 00:57N 36°51' W 076°18'0 0.0
2018-Jun-15 00:30N 36°51' W 076°18'0 0.0
2018-Jun-14 19:33N 36°51' W 076°18'0 0.0
2018-Jun-14 19:03N 36°51' W 076°18'0 0.0
2018-Jun-14 18:51N 36°51' W 076°18'0 0.0
2018-Jun-14 18:27N 36°51' W 076°18'0 0.0
2018-Jun-14 18:00N 36°51' W 076°18'0 0.0
2018-Jun-14 17:30N 36°51' W 076°18'0 0.0
2018-Jun-14 16:57N 36°51' W 076°18'  
Track history (hours):
 
Tides and Currents Weather Stations Pressure Air Temp Water Temp Dewpoint Dewpoint Depression Visibility Wind Speed Wind Dir Waves Ship Positions

Acapulco

Last reported at 2018-Jun-24 16:30 UTC. Time now 2018-Jun-24 16:41 UTC.
Position N 38°56' W 075°06'.

Length 17 m.

Type: Sailing vessel. MMSI: 211543370.

Date/timePositionNaut miles runAvg speedWind from/ knotsBaromVisibWave heightAir tempDewpointWater temp
2018-Jun-24 16:30N 38°56' W 075°06'1 2.7
2018-Jun-24 15:59N 38°55' W 075°07'1 2.4
2018-Jun-24 15:28N 38°54' W 075°07'6 2.6
2018-Jun-24 13:02N 38°47' W 075°09'0 0.0
2018-Jun-24 12:59N 38°47' W 075°09'0 0.0
2018-Jun-24 11:49N 38°47' W 075°09'1 0.4
2018-Jun-24 09:47N 38°47' W 075°10'0 0.0
2018-Jun-24 09:26N 38°47' W 075°10'0 0.0
2018-Jun-24 08:47N 38°47' W 075°10'0 0.0
2018-Jun-24 08:29N 38°47' W 075°10'0 0.0
2018-Jun-24 07:05N 38°47' W 075°10'0 0.1
2018-Jun-24 06:59N 38°47' W 075°10'28 0.7
2018-Jun-22 11:56N 38°20' W 075°06'0 0.0
2018-Jun-22 11:29N 38°20' W 075°06'0 0.0
2018-Jun-22 10:56N 38°20' W 075°06'0 0.0
2018-Jun-22 10:29N 38°20' W 075°06'0 0.0
2018-Jun-22 09:50N 38°20' W 075°06'0 0.0
2018-Jun-22 08:29N 38°20' W 075°06'  
2018-Jun-17 13:43N 36°53' W 076°20'2 5.9
2018-Jun-17 13:18N 36°51' W 076°18'1 0.0
2018-Jun-17 02:31N 36°51' W 076°18'0 0.0
2018-Jun-17 02:13N 36°51' W 076°18'0 0.0
2018-Jun-16 12:00N 36°51' W 076°18'0 0.1
2018-Jun-16 08:25N 36°51' W 076°18'0 0.0
2018-Jun-16 07:50N 36°51' W 076°18'0 0.0
2018-Jun-16 07:25N 36°51' W 076°18'0 0.0
2018-Jun-16 06:49N 36°51' W 076°18'0 0.0
2018-Jun-16 04:49N 36°51' W 076°18'0 0.0
2018-Jun-16 03:01N 36°51' W 076°18'0 0.0
2018-Jun-16 02:25N 36°51' W 076°18'0 0.0
2018-Jun-15 22:07N 36°51' W 076°18'0 0.0
2018-Jun-15 21:41N 36°51' W 076°18'0 0.0
2018-Jun-15 21:25N 36°51' W 076°18'0 0.0
2018-Jun-15 20:32N 36°51' W 076°18'0 0.0
2018-Jun-15 20:19N 36°51' W 076°18'0 0.0
2018-Jun-15 19:40N 36°51' W 076°18'0 0.0
2018-Jun-15 19:25N 36°51' W 076°18'0 0.0
2018-Jun-15 17:04N 36°51' W 076°18'0 0.0
2018-Jun-15 16:52N 36°51' W 076°18'1 1.4
2018-Jun-15 16:30N 36°50' W 076°18'0 0.6
2018-Jun-15 15:55N 36°50' W 076°18'0 0.0
2018-Jun-15 15:31N 36°50' W 076°18'1 1.3
2018-Jun-15 14:51N 36°51' W 076°18'0 0.0
2018-Jun-15 14:30N 36°51' W 076°18'0 0.0
2018-Jun-15 11:21N 36°51' W 076°18'0 0.0
2018-Jun-15 10:51N 36°51' W 076°18'0 0.0
2018-Jun-15 09:09N 36°51' W 076°18'0 0.0
2018-Jun-15 08:42N 36°51' W 076°18'0 0.0
2018-Jun-15 08:21N 36°51' W 076°18'0 0.0
2018-Jun-15 07:51N 36°51' W 076°18'0 0.0
2018-Jun-15 07:09N 36°51' W 076°18'0 0.0
2018-Jun-15 06:48N 36°51' W 076°18'0 0.0
2018-Jun-15 06:21N 36°51' W 076°18'0 0.0
2018-Jun-15 05:57N 36°51' W 076°18'0 0.0
2018-Jun-15 05:27N 36°51' W 076°18'0 0.0
2018-Jun-15 04:51N 36°51' W 076°18'0 0.0
2018-Jun-15 04:30N 36°51' W 076°18'0 0.0
2018-Jun-15 03:51N 36°51' W 076°18'0 0.0
2018-Jun-15 02:33N 36°51' W 076°18'0 0.0
2018-Jun-15 02:27N 36°51' W 076°18'0 0.0
2018-Jun-15 01:51N 36°51' W 076°18'0 0.0
2018-Jun-15 01:27N 36°51' W 076°18'0 0.0
2018-Jun-15 00:57N 36°51' W 076°18'0 0.0
2018-Jun-15 00:30N 36°51' W 076°18'0 0.0
2018-Jun-14 19:33N 36°51' W 076°18'0 0.0
2018-Jun-14 19:03N 36°51' W 076°18'0 0.0
2018-Jun-14 18:51N 36°51' W 076°18'0 0.0
2018-Jun-14 18:27N 36°51' W 076°18'0 0.0
2018-Jun-14 18:00N 36°51' W 076°18'0 0.0
2018-Jun-14 17:30N 36°51' W 076°18'0 0.0
2018-Jun-14 16:57N 36°51' W 076°18'  

Dump ship's entire track history